Time;durP1;ratioP1;P1;durP2;ratioP2;P2;SDS_P1;SDS_P2;PMS_P1;PMS_P2;Temp;Humidity;BMP_temperature;BMP_pressure;BME280_temperature;BME280_humidity;BME280_pressure;Samples;Min_cycle;Max_cycle;Signal;HPM_P1;HPM_P2
2022/12/12 18:59:34;;;;;;;;;;;20.20;41.20;;;;;;5023648;28;19924;-54
2022/12/12 19:01:59;;;;;;;;;;;19.90;41.30;;;;;;5031347;28;20582;-54
2022/12/12 19:04:25;;;;;;;;;;;19.70;41.70;;;;;;5025791;28;20027;-59
2022/12/12 19:06:51;;;;;;;;;;;19.40;42.10;;;;;;5021435;28;20644;-58
2022/12/12 19:09:17;;;;;;;;;;;19.30;42.10;;;;;;5033355;28;19923;-56
2022/12/12 19:11:43;;;;;;;;;;;19.20;42.70;;;;;;5024207;28;19921;-58
2022/12/12 19:14:09;;;;;;;;;;;19.20;42.30;;;;;;5034871;28;19921;-54
2022/12/12 19:16:35;;;;;;;;;;;19.20;42.60;;;;;;5031097;28;20035;-58
2022/12/12 19:19:03;;;;;;;;;;;19.20;42.40;;;;;;5037977;28;20428;-55
2022/12/12 19:21:29;;;;;;;;;;;19.20;42.30;;;;;;5038030;28;19930;-53
2022/12/12 19:23:57;;;;;;;;;;;19.10;42.20;;;;;;5035647;28;19921;-56
2022/12/12 19:26:26;;;;;;;;;;;19.10;42.20;;;;;;5031214;28;19983;-55
2022/12/12 19:28:55;;;;;;;;;;;19.10;42.20;;;;;;5029932;28;21624;-54
2022/12/12 19:31:21;;;;;;;;;;;19.10;41.90;;;;;;5040237;28;20296;-56
2022/12/12 19:33:46;;;;;;;;;;;19.00;41.70;;;;;;5041451;28;19924;-56
2022/12/12 19:36:13;;;;;;;;;;;18.90;41.80;;;;;;5033038;28;20557;-55
2022/12/12 19:38:39;;;;;;;;;;;18.90;42.00;;;;;;5023438;28;19921;-55
2022/12/12 19:41:05;;;;;;;;;;;18.80;42.10;;;;;;5036419;28;19994;-54
2022/12/12 19:43:31;;;;;;;;;;;18.90;42.10;;;;;;5033431;28;19960;-57
2022/12/12 19:46:00;;;;;;;;;;;18.80;42.00;;;;;;5030860;28;20001;-55
2022/12/12 19:48:26;;;;;;;;;;;18.80;42.20;;;;;;5029205;28;19947;-52
2022/12/12 19:50:51;;;;;;;;;;;18.70;41.80;;;;;;4940147;28;99489;-54
2022/12/12 19:54:15;;;;;;;;;;;18.70;41.90;;;;;;4979773;28;19932;-55
2022/12/12 19:56:42;;;;;;;;;;;18.60;42.00;;;;;;4963518;28;70751;-57
2022/12/12 20:04:24;;;;;;;;;;;18.50;42.00;;;;;;7330989;19;19935;-59
2022/12/12 20:06:50;;;;;;;;;;;18.50;42.10;;;;;;7367312;19;19951;-59
2022/12/12 20:09:17;;;;;;;;;;;18.50;42.10;;;;;;7162499;19;19934;-56
2022/12/12 20:11:44;;;;;;;;;;;18.50;42.20;;;;;;7020365;19;20316;-59
2022/12/12 20:14:20;;;;;;;;;;;18.50;42.00;;;;;;7386500;19;19918;-59
2022/12/12 20:16:45;;;;;;;;;;;18.50;42.10;;;;;;7381584;19;19918;-58
2022/12/12 20:19:12;;;;;;;;;;;18.80;42.70;;;;;;7384319;19;19911;-58
2022/12/12 20:21:38;;;;;;;;;;;18.90;42.30;;;;;;7376628;19;19924;-54
2022/12/12 20:24:05;;;;;;;;;;;19.00;42.50;;;;;;7364415;19;20643;-58
2022/12/12 20:26:30;;;;;;;;;;;19.00;42.20;;;;;;7394220;19;19942;-58
2022/12/12 20:28:58;;;;;;;;;;;18.90;42.10;;;;;;7403826;19;19944;-59
2022/12/12 20:31:25;;;;;;;;;;;18.90;42.20;;;;;;7412222;19;19914;-58
2022/12/12 20:33:53;;;;;;;;;;;18.90;42.10;;;;;;7410637;19;19970;-57
2022/12/12 20:36:19;;;;;;;;;;;18.90;42.20;;;;;;7405702;19;19929;-58
2022/12/12 20:38:45;;;;;;;;;;;18.80;42.20;;;;;;7400203;19;20595;-58
2022/12/12 20:41:12;;;;;;;;;;;18.70;42.20;;;;;;7409210;19;19926;-57
2022/12/12 20:43:38;;;;;;;;;;;18.70;42.20;;;;;;7413370;19;19976;-60
2022/12/12 20:46:07;;;;;;;;;;;18.70;42.50;;;;;;7402167;19;19926;-57
2022/12/12 20:48:33;;;;;;;;;;;18.60;42.00;;;;;;7400841;19;19918;-59
2022/12/12 20:50:58;;;;;;;;;;;18.60;42.10;;;;;;7390081;19;19911;-58
2022/12/12 20:53:23;;;;;;;;;;;18.60;42.30;;;;;;7410834;19;20322;-59
2022/12/12 20:55:49;;;;;;;;;;;18.60;42.20;;;;;;7407693;19;19915;-58
2022/12/12 20:58:14;;;;;;;;;;;18.60;42.20;;;;;;7409264;19;19915;-57
2022/12/12 21:00:40;;;;;;;;;;;18.60;42.30;;;;;;7411225;19;20013;-53
2022/12/12 21:03:05;;;;;;;;;;;18.60;42.50;;;;;;7405561;19;19919;-59
2022/12/12 21:05:31;;;;;;;;;;;18.70;42.70;;;;;;7403423;19;19914;-59
2022/12/12 21:07:56;;;;;;;;;;;18.70;42.70;;;;;;7415863;19;19922;-59
2022/12/12 21:10:22;;;;;;;;;;;18.70;42.60;;;;;;7409033;19;19978;-54
2022/12/12 21:12:47;;;;;;;;;;;18.70;42.20;;;;;;7381167;19;19910;-58
2022/12/12 21:15:12;;;;;;;;;;;18.70;42.20;;;;;;7384129;19;20018;-59
2022/12/12 21:17:38;;;;;;;;;;;18.80;41.90;;;;;;7374894;19;20028;-55
2022/12/12 21:20:04;;;;;;;;;;;18.80;41.80;;;;;;7375497;19;19951;-59
2022/12/12 21:22:29;;;;;;;;;;;18.80;41.90;;;;;;7374653;19;19922;-52
2022/12/12 21:24:55;;;;;;;;;;;18.70;42.10;;;;;;7370644;19;21459;-58
2022/12/12 21:27:20;;;;;;;;;;;18.60;42.10;;;;;;7359060;19;20384;-59
2022/12/12 21:29:45;;;;;;;;;;;18.50;42.20;;;;;;7366543;19;19939;-58
2022/12/12 21:32:11;;;;;;;;;;;18.40;42.30;;;;;;7193095;19;19945;-51
2022/12/12 21:34:38;;;;;;;;;;;18.40;42.20;;;;;;7357288;19;19943;-53
2022/12/12 21:37:04;;;;;;;;;;;18.40;42.20;;;;;;7363652;19;19998;-59
2022/12/12 21:39:30;;;;;;;;;;;18.40;42.40;;;;;;7363516;19;19998;-59
2022/12/12 21:41:55;;;;;;;;;;;18.40;42.40;;;;;;7366261;19;19918;-59
2022/12/12 21:44:21;;;;;;;;;;;18.40;42.40;;;;;;7369764;19;19919;-60
2022/12/12 21:46:46;;;;;;;;;;;18.30;42.30;;;;;;7372371;19;19925;-57
2022/12/12 21:49:27;;;;;;;;;;;18.30;42.40;;;;;;7361995;19;19923;-58
2022/12/12 21:51:57;;;;;;;;;;;18.30;42.30;;;;;;7367020;19;19918;-57
2022/12/12 21:54:22;;;;;;;;;;;18.30;42.50;;;;;;7365379;19;19934;-59
2022/12/12 21:56:48;;;;;;;;;;;18.20;42.40;;;;;;7357349;19;19950;-58
2022/12/12 21:59:14;;;;;;;;;;;18.20;42.40;;;;;;7357671;19;20871;-55
2022/12/12 22:01:40;;;;;;;;;;;18.30;42.40;;;;;;7365586;19;19930;-57
2022/12/12 22:04:06;;;;;;;;;;;18.30;42.50;;;;;;7354756;19;19918;-56
2022/12/12 22:06:33;;;;;;;;;;;18.30;42.40;;;;;;7363628;19;19923;-58
2022/12/12 22:08:59;;;;;;;;;;;18.30;42.30;;;;;;7365275;19;19923;-57
2022/12/12 22:11:26;;;;;;;;;;;18.30;42.40;;;;;;7364034;19;20388;-56
2022/12/12 22:13:52;;;;;;;;;;;18.40;42.50;;;;;;7359235;19;20286;-59
2022/12/12 22:16:18;;;;;;;;;;;18.40;42.30;;;;;;7363424;19;19930;-60
2022/12/12 22:18:44;;;;;;;;;;;18.40;42.30;;;;;;7356994;19;22551;-60
2022/12/12 22:21:13;;;;;;;;;;;18.40;42.30;;;;;;7361583;19;19927;-58
2022/12/12 22:23:39;;;;;;;;;;;18.40;42.20;;;;;;7367215;19;19922;-59
2022/12/12 22:26:23;;;;;;;;;;;18.40;42.10;;;;;;7356220;19;19911;-57
2022/12/12 22:28:49;;;;;;;;;;;18.50;42.20;;;;;;7353464;19;19915;-57
2022/12/12 22:31:16;;;;;;;;;;;18.40;42.20;;;;;;7364236;19;19914;-58
2022/12/12 22:33:41;;;;;;;;;;;18.40;42.20;;;;;;7361430;19;19931;-58
2022/12/12 22:36:08;;;;;;;;;;;18.40;42.20;;;;;;7370364;19;20443;-59
2022/12/12 22:38:34;;;;;;;;;;;18.40;42.30;;;;;;7359386;19;20058;-58
2022/12/12 22:40:59;;;;;;;;;;;18.30;42.10;;;;;;7363861;19;20324;-59
2022/12/12 22:43:25;;;;;;;;;;;18.30;42.20;;;;;;7370802;19;19975;-58
2022/12/12 22:45:51;;;;;;;;;;;18.30;42.00;;;;;;7368113;19;19971;-58
2022/12/12 22:48:16;;;;;;;;;;;18.30;42.20;;;;;;7362337;19;20336;-59
2022/12/12 22:50:42;;;;;;;;;;;18.20;42.00;;;;;;7369715;19;19931;-59
2022/12/12 22:53:08;;;;;;;;;;;18.20;42.10;;;;;;7372707;19;19921;-59
2022/12/12 22:55:33;;;;;;;;;;;18.20;42.20;;;;;;7362583;19;20050;-60
2022/12/12 22:57:59;;;;;;;;;;;18.20;42.20;;;;;;7363476;19;19911;-58
2022/12/12 23:00:25;;;;;;;;;;;18.20;42.30;;;;;;7368394;19;20970;-53
2022/12/12 23:02:50;;;;;;;;;;;18.20;42.30;;;;;;7369084;19;20835;-57
2022/12/12 23:05:16;;;;;;;;;;;18.20;42.30;;;;;;7356709;19;19922;-59
2022/12/12 23:07:42;;;;;;;;;;;18.20;42.30;;;;;;7372306;19;19918;-59
2022/12/12 23:10:07;;;;;;;;;;;18.20;42.30;;;;;;7362925;19;19978;-60
2022/12/12 23:12:33;;;;;;;;;;;18.20;42.20;;;;;;7368488;19;19915;-59
2022/12/12 23:14:58;;;;;;;;;;;18.30;42.30;;;;;;7359532;19;19931;-60
2022/12/12 23:17:24;;;;;;;;;;;18.30;42.10;;;;;;7366084;19;20005;-59
2022/12/12 23:19:49;;;;;;;;;;;18.30;42.10;;;;;;7360977;19;19923;-55
2022/12/12 23:22:15;;;;;;;;;;;18.30;42.10;;;;;;7356612;19;19923;-59
2022/12/12 23:24:40;;;;;;;;;;;18.30;42.20;;;;;;7364722;19;19921;-56
2022/12/12 23:27:07;;;;;;;;;;;18.40;42.20;;;;;;7360660;19;19949;-59
2022/12/12 23:29:32;;;;;;;;;;;18.40;42.00;;;;;;7360241;19;19934;-59
2022/12/12 23:32:01;;;;;;;;;;;18.40;42.00;;;;;;7343278;19;20332;-59
2022/12/12 23:34:27;;;;;;;;;;;18.50;42.00;;;;;;7357752;19;20348;-59
2022/12/12 23:36:53;;;;;;;;;;;18.50;42.00;;;;;;7360962;19;19918;-60
2022/12/12 23:39:19;;;;;;;;;;;18.50;41.90;;;;;;7359779;19;19930;-60
2022/12/12 23:41:44;;;;;;;;;;;18.50;41.90;;;;;;7360300;19;20252;-60
2022/12/12 23:44:11;;;;;;;;;;;18.50;41.80;;;;;;7366356;19;19929;-54
2022/12/12 23:46:37;;;;;;;;;;;18.60;41.80;;;;;;7371601;19;19915;-60
2022/12/12 23:49:04;;;;;;;;;;;18.60;41.80;;;;;;7360681;19;20375;-60
2022/12/12 23:51:31;;;;;;;;;;;18.60;41.80;;;;;;7371319;19;19925;-57
2022/12/12 23:53:58;;;;;;;;;;;18.50;41.70;;;;;;7351769;19;19938;-59
2022/12/12 23:56:24;;;;;;;;;;;18.60;41.80;;;;;;7365632;19;19918;-57
2022/12/12 23:58:50;;;;;;;;;;;18.60;41.70;;;;;;7365073;19;19930;-60
